Time;durP1;ratioP1;P1;durP2;ratioP2;P2;SDS_P1;SDS_P2;PMS_P1;PMS_P2;Temp;Humidity;BMP_temperature;BMP_pressure;BME280_temperature;BME280_humidity;BME280_pressure;Samples;Min_cycle;Max_cycle;Signal;HPM_P1;HPM_P2
2022/07/15 00:01:43;;;;;;;7.55;3.30;;;11.30;99.90;;;;;;4978129;28;20026;-62
2022/07/15 00:04:10;;;;;;;5.75;2.67;;;11.40;99.90;;;;;;4976236;28;20118;-62
2022/07/15 00:06:37;;;;;;;5.75;3.35;;;11.50;99.90;;;;;;4976888;28;20014;-62
2022/07/15 00:09:04;;;;;;;4.82;3.13;;;11.70;99.90;;;;;;4974237;28;20027;-62
2022/07/15 00:11:31;;;;;;;6.18;3.53;;;11.70;99.90;;;;;;4980574;28;20029;-62
2022/07/15 00:13:58;;;;;;;6.70;4.30;;;11.80;99.90;;;;;;4977447;28;20460;-62
2022/07/15 00:16:26;;;;;;;8.23;3.13;;;11.90;99.90;;;;;;4979559;28;20038;-62
2022/07/15 00:18:53;;;;;;;7.43;4.15;;;12.00;99.90;;;;;;4980422;28;20069;-62
2022/07/15 00:21:20;;;;;;;7.45;2.80;;;12.10;99.90;;;;;;4982269;28;20038;-62
2022/07/15 00:23:47;;;;;;;4.45;2.72;;;12.10;99.90;;;;;;4978528;28;20050;-61
2022/07/15 00:26:14;;;;;;;6.40;3.22;;;12.30;99.90;;;;;;4975679;28;20397;-62
2022/07/15 00:28:41;;;;;;;6.25;3.97;;;12.60;99.90;;;;;;4978415;28;20019;-62
2022/07/15 00:31:08;;;;;;;4.03;2.42;;;12.60;99.90;;;;;;4980184;28;20055;-62
2022/07/15 00:33:36;;;;;;;3.40;2.50;;;12.60;99.90;;;;;;4977922;28;20049;-62
2022/07/15 00:36:03;;;;;;;6.60;2.90;;;12.80;99.90;;;;;;4976556;28;20027;-62
2022/07/15 00:38:30;;;;;;;2.55;1.63;;;13.00;99.90;;;;;;4980958;28;20034;-62
2022/07/15 00:40:57;;;;;;;0.90;0.70;;;13.20;99.90;;;;;;4980764;28;20133;-61
2022/07/15 00:43:24;;;;;;;0.88;0.80;;;13.30;99.90;;;;;;4979809;28;20484;-63
2022/07/15 00:45:52;;;;;;;2.13;1.05;;;13.30;99.90;;;;;;4974480;28;20030;-63
2022/07/15 00:48:19;;;;;;;2.60;1.10;;;13.40;99.90;;;;;;4977777;28;20026;-64
2022/07/15 00:50:47;;;;;;;1.73;0.88;;;13.50;99.90;;;;;;4976611;28;20070;-63
2022/07/15 00:53:18;;;;;;;1.60;1.05;;;13.70;99.90;;;;;;4981695;28;20474;-63
2022/07/15 00:55:47;;;;;;;3.05;1.23;;;13.90;99.90;;;;;;4977161;28;20033;-63
2022/07/15 00:58:20;;;;;;;2.78;1.45;;;14.00;99.90;;;;;;4980185;28;20121;-64
2022/07/15 01:00:48;;;;;;;2.50;0.75;;;14.10;99.90;;;;;;4979347;28;20037;-64
2022/07/15 01:03:17;;;;;;;3.63;0.82;;;14.20;99.90;;;;;;4980253;28;20065;-64
2022/07/15 01:05:46;;;;;;;4.15;0.77;;;14.40;99.90;;;;;;4979020;28;20026;-64
2022/07/15 01:08:15;;;;;;;1.55;0.60;;;14.50;99.90;;;;;;4978521;28;20362;-63
2022/07/15 01:10:42;;;;;;;5.65;0.70;;;14.70;99.90;;;;;;4975587;28;20030;-63
2022/07/15 01:13:09;;;;;;;1.20;0.50;;;14.80;99.90;;;;;;4979694;28;20033;-64
2022/07/15 01:15:36;;;;;;;2.50;0.52;;;14.90;99.20;;;;;;4977576;28;20113;-64
2022/07/15 01:18:04;;;;;;;1.58;0.73;;;15.00;99.00;;;;;;4976586;28;20025;-64
2022/07/15 01:20:32;;;;;;;2.78;1.33;;;15.00;99.10;;;;;;4977914;28;20022;-63
2022/07/15 01:22:59;;;;;;;1.75;0.75;;;15.10;99.20;;;;;;4980044;28;20040;-63
2022/07/15 01:25:27;;;;;;;3.13;0.60;;;15.10;99.00;;;;;;4973941;28;20049;-64
2022/07/15 01:27:55;;;;;;;3.63;0.88;;;15.00;98.10;;;;;;4975216;28;20033;-64
2022/07/15 01:30:22;;;;;;;6.40;0.80;;;15.10;98.00;;;;;;4977583;28;20014;-64
2022/07/15 01:32:49;;;;;;;2.45;0.65;;;15.20;98.50;;;;;;4976565;28;20031;-64
2022/07/15 01:35:17;;;;;;;3.25;0.60;;;15.50;97.90;;;;;;4976462;28;20030;-64
2022/07/15 01:37:44;;;;;;;1.02;0.50;;;15.50;97.20;;;;;;4977111;28;20030;-64
2022/07/15 01:40:12;;;;;;;0.52;0.30;;;15.50;97.50;;;;;;4637535;23;10002591;-63
2022/07/15 01:42:39;;;;;;;2.22;1.20;;;15.60;97.20;;;;;;4979081;28;20032;-64
2022/07/15 01:45:09;;;;;;;8.27;4.20;;;15.60;96.40;;;;;;4972685;28;20129;-65
2022/07/15 01:47:47;;;;;;;2.13;0.90;;;15.70;96.70;;;;;;4979161;28;20470;-64
2022/07/15 01:50:15;;;;;;;4.78;1.45;;;16.00;94.90;;;;;;4977751;28;20030;-64
2022/07/15 01:52:43;;;;;;;2.20;1.55;;;16.00;95.70;;;;;;4977871;28;20109;-64
2022/07/15 01:55:11;;;;;;;3.55;1.40;;;16.10;95.60;;;;;;4976999;28;20103;-64
2022/07/15 01:57:38;;;;;;;3.67;1.00;;;16.20;95.60;;;;;;4978237;28;20038;-64
2022/07/15 02:00:07;;;;;;;2.65;0.90;;;16.30;94.30;;;;;;4976988;28;20038;-64
2022/07/15 02:02:34;;;;;;;3.78;0.90;;;16.50;93.80;;;;;;4978785;28;20030;-64
2022/07/15 02:05:02;;;;;;;2.80;0.68;;;16.60;94.10;;;;;;4972406;28;20427;-63
2022/07/15 02:07:30;;;;;;;0.75;0.32;;;16.70;93.90;;;;;;4981101;28;20010;-64
2022/07/15 02:09:57;;;;;;;3.20;1.00;;;16.70;93.50;;;;;;4978393;28;20027;-63
2022/07/15 02:12:25;;;;;;;1.65;0.90;;;16.90;93.60;;;;;;4980242;28;20424;-63
2022/07/15 02:14:52;;;;;;;1.58;0.80;;;17.10;92.40;;;;;;4981264;28;20137;-64
2022/07/15 02:17:19;;;;;;;2.60;0.57;;;17.20;92.10;;;;;;4986046;28;20030;-65
2022/07/15 02:19:46;;;;;;;0.70;0.40;;;17.20;92.00;;;;;;4982216;28;20026;-65
2022/07/15 02:22:13;;;;;;;2.95;0.70;;;17.00;92.30;;;;;;4982279;28;20027;-65
2022/07/15 02:24:42;;;;;;;1.65;0.40;;;17.10;92.80;;;;;;4982873;28;20023;-65
2022/07/15 02:27:09;;;;;;;1.02;0.40;;;17.00;91.20;;;;;;4984167;28;20021;-64
2022/07/15 02:29:36;;;;;;;1.25;0.47;;;16.90;91.30;;;;;;4987175;28;20022;-63
2022/07/15 02:32:03;;;;;;;2.53;1.10;;;16.80;91.50;;;;;;4982501;28;20027;-63
2022/07/15 02:34:30;;;;;;;2.53;1.52;;;16.70;91.80;;;;;;4985861;28;20041;-64
2022/07/15 02:36:58;;;;;;;2.65;1.27;;;17.00;91.10;;;;;;4985512;28;20026;-63
2022/07/15 02:39:25;;;;;;;1.95;1.02;;;17.10;90.80;;;;;;4987587;28;20058;-63
2022/07/15 02:41:53;;;;;;;2.47;1.38;;;17.20;91.20;;;;;;4983347;28;20041;-64
2022/07/15 02:44:20;;;;;;;1.38;0.75;;;17.20;91.50;;;;;;4982586;28;20037;-66
2022/07/15 02:46:47;;;;;;;4.28;0.90;;;17.30;91.30;;;;;;4981903;28;20029;-64
2022/07/15 02:49:14;;;;;;;2.10;0.93;;;17.60;91.80;;;;;;4983288;28;20034;-63
2022/07/15 02:51:41;;;;;;;1.33;0.70;;;17.70;89.60;;;;;;4983191;28;20031;-63
2022/07/15 02:54:08;;;;;;;1.65;0.50;;;17.70;90.70;;;;;;4982672;28;20022;-63
2022/07/15 02:56:35;;;;;;;2.05;0.63;;;17.80;90.30;;;;;;4979811;28;20072;-64
2022/07/15 02:59:02;;;;;;;1.88;0.57;;;18.00;89.90;;;;;;4981416;28;20094;-64
2022/07/15 03:01:30;;;;;;;2.47;0.88;;;18.00;88.80;;;;;;4983200;28;20519;-64
2022/07/15 03:03:57;;;;;;;1.50;0.85;;;18.00;89.70;;;;;;4984459;28;20749;-64
2022/07/15 03:06:24;;;;;;;1.60;0.73;;;18.10;88.60;;;;;;4985551;28;20037;-64
2022/07/15 03:08:51;;;;;;;3.20;0.60;;;18.20;86.80;;;;;;4983235;28;20034;-67
2022/07/15 03:11:19;;;;;;;1.15;0.43;;;18.20;86.00;;;;;;4981499;28;20033;-69
2022/07/15 03:13:46;;;;;;;2.13;0.60;;;17.90;86.20;;;;;;4966547;28;20468;-66
2022/07/15 03:16:13;;;;;;;1.15;0.73;;;18.00;86.90;;;;;;4983450;28;20023;-63
2022/07/15 03:18:40;;;;;;;3.17;1.15;;;18.10;86.60;;;;;;4982509;28;20450;-65
2022/07/15 03:21:07;;;;;;;5.05;0.80;;;18.20;87.90;;;;;;4984499;28;20057;-65
2022/07/15 03:23:34;;;;;;;1.13;0.60;;;18.20;86.00;;;;;;4986878;28;20036;-67
2022/07/15 03:26:01;;;;;;;2.08;0.68;;;18.30;86.30;;;;;;4982577;28;20027;-65
2022/07/15 03:28:29;;;;;;;1.17;0.60;;;18.40;86.70;;;;;;4985166;28;20022;-66
2022/07/15 03:30:56;;;;;;;1.92;0.70;;;18.50;82.90;;;;;;4982717;28;20050;-64
2022/07/15 03:33:23;;;;;;;0.85;0.57;;;18.40;83.40;;;;;;4985766;28;20041;-64
2022/07/15 03:35:50;;;;;;;1.70;0.68;;;18.40;82.40;;;;;;4985339;28;20030;-64
2022/07/15 03:38:17;;;;;;;0.45;0.40;;;18.10;82.10;;;;;;4985275;28;20023;-66
2022/07/15 03:40:44;;;;;;;1.58;0.57;;;18.20;81.10;;;;;;4982334;28;20054;-64
2022/07/15 03:43:12;;;;;;;1.52;0.93;;;18.30;81.50;;;;;;4984149;28;20391;-63
2022/07/15 03:45:39;;;;;;;0.82;0.60;;;18.50;80.80;;;;;;4983688;28;20399;-64
2022/07/15 03:48:06;;;;;;;0.70;0.45;;;18.50;78.90;;;;;;4985061;28;20022;-66
2022/07/15 03:50:33;;;;;;;2.40;0.50;;;18.50;79.30;;;;;;4985570;28;20030;-63
2022/07/15 03:53:00;;;;;;;1.48;0.70;;;18.50;78.00;;;;;;4980897;28;20076;-67
2022/07/15 03:55:27;;;;;;;4.05;0.68;;;18.30;76.30;;;;;;4976392;28;20023;-66
2022/07/15 03:57:55;;;;;;;0.93;0.60;;;18.30;78.00;;;;;;4981507;28;20288;-64
2022/07/15 04:00:23;;;;;;;2.92;0.55;;;18.30;77.60;;;;;;4977671;28;20038;-65
2022/07/15 04:02:50;;;;;;;1.63;0.70;;;18.30;78.40;;;;;;4978088;28;20041;-64
2022/07/15 04:05:17;;;;;;;3.05;1.02;;;18.30;78.20;;;;;;4966102;28;20647;-66
2022/07/15 04:07:44;;;;;;;2.72;1.10;;;18.50;78.50;;;;;;4964001;28;20388;-70
2022/07/15 04:10:12;;;;;;;1.70;0.80;;;18.50;76.80;;;;;;4985104;28;20030;-64
2022/07/15 04:12:39;;;;;;;2.22;0.80;;;18.70;76.60;;;;;;4966482;28;20269;-64
2022/07/15 04:15:06;;;;;;;5.30;1.30;;;18.70;77.40;;;;;;4985481;28;20033;-68
2022/07/15 04:17:34;;;;;;;2.28;0.65;;;18.60;77.10;;;;;;4984269;28;20023;-66
2022/07/15 04:20:01;;;;;;;2.88;0.80;;;18.60;76.30;;;;;;4984464;28;20666;-68
2022/07/15 04:22:29;;;;;;;1.10;0.70;;;18.40;80.00;;;;;;4982946;28;20033;-66
2022/07/15 04:24:56;;;;;;;1.27;0.80;;;18.50;78.20;;;;;;4982957;28;20026;-69
2022/07/15 04:27:24;;;;;;;3.53;1.10;;;18.60;77.80;;;;;;4981533;28;20033;-65
2022/07/15 04:29:51;;;;;;;1.92;0.63;;;18.70;76.20;;;;;;4983311;28;20762;-68
2022/07/15 04:32:18;;;;;;;1.77;0.82;;;18.50;77.00;;;;;;4983946;28;20124;-65
2022/07/15 04:34:45;;;;;;;1.10;0.70;;;18.60;74.00;;;;;;4985227;28;20054;-68
2022/07/15 04:37:12;;;;;;;0.70;0.55;;;18.50;75.00;;;;;;4984573;28;20030;-66
2022/07/15 04:39:39;;;;;;;1.67;0.65;;;18.20;77.40;;;;;;4982667;28;20557;-67
2022/07/15 04:42:06;;;;;;;3.03;0.85;;;18.20;76.00;;;;;;4986634;28;20058;-66
2022/07/15 04:44:34;;;;;;;2.75;0.60;;;18.30;76.70;;;;;;4982951;28;20027;-64
2022/07/15 04:47:02;;;;;;;3.63;0.70;;;18.40;76.10;;;;;;4983452;28;20498;-64
2022/07/15 04:52:16;;;;;;;4.25;0.90;;;18.70;72.10;;;;;;4983983;28;20405;-66
2022/07/15 04:54:44;;;;;;;2.15;0.50;;;18.20;70.00;;;;;;4984380;28;20465;-63
2022/07/15 04:57:11;;;;;;;1.50;0.60;;;18.10;71.80;;;;;;4983157;28;20093;-65
2022/07/15 04:59:39;;;;;;;5.15;1.42;;;18.20;72.70;;;;;;4985053;28;20105;-65
2022/07/15 05:02:06;;;;;;;3.20;1.00;;;18.30;72.30;;;;;;4984990;28;20022;-65
2022/07/15 05:04:33;;;;;;;1.85;0.98;;;18.30;71.80;;;;;;4983690;28;20023;-65
2022/07/15 05:07:00;;;;;;;2.55;0.88;;;18.30;72.30;;;;;;4982423;28;20066;-67
2022/07/15 05:09:27;;;;;;;4.43;1.08;;;18.30;73.00;;;;;;4990041;28;20064;-69
2022/07/15 05:11:54;;;;;;;2.53;1.20;;;18.40;73.10;;;;;;4985102;28;20994;-66
2022/07/15 05:14:22;;;;;;;4.00;0.82;;;18.70;73.60;;;;;;4965988;28;20049;-67
2022/07/15 05:16:49;;;;;;;2.88;0.70;;;18.80;70.50;;;;;;4986257;28;20027;-69
2022/07/15 05:19:16;;;;;;;1.48;0.50;;;19.00;71.70;;;;;;4984213;28;20034;-66
2022/07/15 05:21:44;;;;;;;2.08;0.85;;;19.10;70.20;;;;;;4982121;28;20104;-66
2022/07/15 05:24:11;;;;;;;2.03;0.93;;;19.50;70.30;;;;;;4982896;28;20076;-67
2022/07/15 05:26:38;;;;;;;2.22;0.55;;;19.60;69.80;;;;;;4984447;28;20026;-64
2022/07/15 05:29:05;;;;;;;1.50;0.60;;;19.80;67.10;;;;;;4981794;28;20497;-64
2022/07/15 05:31:32;;;;;;;2.67;0.68;;;20.00;68.80;;;;;;4985268;28;20034;-64
2022/07/15 05:33:59;;;;;;;2.90;0.70;;;20.00;67.00;;;;;;4983642;28;20029;-63
2022/07/15 05:36:26;;;;;;;1.80;0.73;;;20.00;67.10;;;;;;4984198;28;20472;-65
2022/07/15 05:38:53;;;;;;;0.98;0.60;;;20.00;68.30;;;;;;4980809;28;20030;-66
2022/07/15 05:41:20;;;;;;;1.98;0.73;;;20.20;65.50;;;;;;4983748;28;20026;-70
2022/07/15 05:43:48;;;;;;;1.08;0.70;;;20.00;64.80;;;;;;4982918;28;20034;-67
2022/07/15 05:46:15;;;;;;;1.88;0.75;;;19.70;67.40;;;;;;4982317;28;20026;-72
2022/07/15 05:48:42;;;;;;;1.27;0.80;;;19.70;68.40;;;;;;4984343;28;20041;-65
2022/07/15 05:51:09;;;;;;;0.93;0.52;;;19.80;67.10;;;;;;4984436;28;20049;-67
2022/07/15 05:53:36;;;;;;;0.98;0.60;;;19.80;67.30;;;;;;4984090;28;20373;-65
2022/07/15 05:56:04;;;;;;;1.63;0.70;;;19.40;68.20;;;;;;4989196;28;20575;-65
2022/07/15 05:58:31;;;;;;;2.78;1.40;;;18.90;68.70;;;;;;4990070;28;20033;-66
2022/07/15 06:00:58;;;;;;;1.83;1.13;;;18.30;68.90;;;;;;4991708;28;20014;-63
2022/07/15 06:03:25;;;;;;;0.65;0.63;;;17.70;70.90;;;;;;4984069;28;20032;-63
2022/07/15 06:05:52;;;;;;;2.63;1.20;;;17.10;71.90;;;;;;4984644;28;20205;-63
2022/07/15 06:08:19;;;;;;;2.17;0.95;;;16.70;73.70;;;;;;4989919;28;20079;-63
2022/07/15 06:10:47;;;;;;;1.40;0.80;;;16.30;75.70;;;;;;4985050;28;20026;-63
2022/07/15 06:13:15;;;;;;;1.42;0.60;;;16.00;77.40;;;;;;4985476;28;20480;-62
2022/07/15 06:15:42;;;;;;;1.30;0.60;;;16.10;75.90;;;;;;4984381;28;20030;-65
2022/07/15 06:18:09;;;;;;;1.10;0.70;;;16.10;78.00;;;;;;4984315;28;20715;-62
2022/07/15 06:20:36;;;;;;;0.88;0.65;;;16.10;76.40;;;;;;4984489;28;20031;-63
2022/07/15 06:23:03;;;;;;;1.33;1.00;;;16.00;78.90;;;;;;4985752;28;20027;-67
2022/07/15 06:25:30;;;;;;;1.05;0.60;;;15.90;78.50;;;;;;4985984;28;20105;-69
2022/07/15 06:27:58;;;;;;;1.98;0.82;;;15.70;82.30;;;;;;4985488;28;20117;-63
2022/07/15 06:30:26;;;;;;;0.98;0.77;;;15.50;82.20;;;;;;4968276;28;20028;-68
2022/07/15 06:32:53;;;;;;;2.45;0.93;;;15.40;81.60;;;;;;4984334;28;20035;-64
2022/07/15 06:35:20;;;;;;;1.27;0.98;;;15.30;83.90;;;;;;4985925;28;20089;-66
2022/07/15 06:37:48;;;;;;;6.63;4.60;;;15.10;84.30;;;;;;4985135;28;20034;-64
2022/07/15 06:40:15;;;;;;;2.75;1.30;;;14.90;84.70;;;;;;4984121;28;20592;-68
2022/07/15 06:42:42;;;;;;;4.53;1.67;;;14.70;83.50;;;;;;4987627;28;20650;-70
2022/07/15 06:45:10;;;;;;;3.15;1.05;;;14.80;84.50;;;;;;4984401;28;20373;-63
2022/07/15 06:47:41;;;;;;;2.72;0.90;;;14.70;85.90;;;;;;4986206;28;20022;-64
2022/07/15 06:50:09;;;;;;;1.90;0.93;;;14.60;86.60;;;;;;4979764;28;20438;-65
2022/07/15 06:52:36;;;;;;;4.45;1.60;;;14.40;86.60;;;;;;4983543;28;20098;-63
2022/07/15 06:55:04;;;;;;;2.65;1.00;;;14.40;87.10;;;;;;4981246;28;20137;-63
2022/07/15 06:57:32;;;;;;;2.10;1.17;;;14.10;86.80;;;;;;4981124;28;20039;-62
2022/07/15 07:00:00;;;;;;;2.92;1.30;;;13.80;87.00;;;;;;4984867;28;20022;-62
2022/07/15 07:02:28;;;;;;;2.35;1.00;;;13.60;87.50;;;;;;4983914;28;20035;-62
2022/07/15 07:04:55;;;;;;;2.38;1.10;;;13.40;89.30;;;;;;4985458;28;20473;-62
2022/07/15 07:07:22;;;;;;;2.67;1.70;;;13.20;90.20;;;;;;4984544;28;20026;-62
2022/07/15 07:09:49;;;;;;;3.65;2.33;;;13.20;91.10;;;;;;4983737;28;20015;-62
2022/07/15 07:12:16;;;;;;;2.10;1.90;;;13.10;91.70;;;;;;4982265;28;20053;-63
2022/07/15 07:14:43;;;;;;;7.78;5.28;;;12.90;92.20;;;;;;4986130;28;20019;-62
2022/07/15 07:17:10;;;;;;;13.05;9.32;;;12.60;93.20;;;;;;4985777;28;20113;-63
2022/07/15 07:19:37;;;;;;;49.20;31.45;;;12.40;94.00;;;;;;4984242;28;20034;-63
2022/07/15 07:22:05;;;;;;;31.60;20.35;;;12.40;94.30;;;;;;4980888;28;20142;-63
2022/07/15 07:24:32;;;;;;;25.38;14.55;;;12.20;94.80;;;;;;4982768;28;20034;-63
2022/07/15 07:26:59;;;;;;;17.73;11.30;;;12.10;95.20;;;;;;4983234;28;20026;-63
2022/07/15 07:29:26;;;;;;;8.48;6.15;;;11.90;95.60;;;;;;4982033;28;20408;-62
2022/07/15 07:31:53;;;;;;;6.57;4.22;;;11.70;95.90;;;;;;4982330;28;20069;-63
2022/07/15 07:34:21;;;;;;;11.18;7.15;;;11.60;96.70;;;;;;4983993;28;20148;-64
2022/07/15 07:36:48;;;;;;;7.55;5.03;;;11.50;97.10;;;;;;4980603;28;20491;-63
2022/07/15 07:39:16;;;;;;;6.22;3.03;;;11.40;97.40;;;;;;4985213;28;20050;-63
2022/07/15 07:41:43;;;;;;;4.43;3.03;;;11.30;97.90;;;;;;4982893;28;20036;-62
2022/07/15 07:44:11;;;;;;;6.55;2.90;;;11.30;98.50;;;;;;4981371;28;20580;-63
2022/07/15 07:46:38;;;;;;;7.03;2.70;;;11.20;99.20;;;;;;4983519;28;20021;-62
2022/07/15 07:49:05;;;;;;;7.18;2.78;;;11.20;99.60;;;;;;4981477;28;20225;-62
2022/07/15 07:51:33;;;;;;;5.88;3.47;;;11.30;99.90;;;;;;4982223;28;20487;-62
2022/07/15 07:54:00;;;;;;;5.50;4.20;;;11.30;99.90;;;;;;4981177;28;20045;-62
2022/07/15 07:56:27;;;;;;;9.13;5.05;;;11.30;99.90;;;;;;4983861;28;20023;-61
2022/07/15 07:58:55;;;;;;;7.72;5.72;;;11.10;99.90;;;;;;4635873;28;10000062;-62
2022/07/15 08:01:22;;;;;;;8.82;5.32;;;11.00;99.90;;;;;;4980807;28;20025;-63
2022/07/15 08:03:50;;;;;;;6.13;5.45;;;10.90;99.90;;;;;;4979534;28;20037;-62
2022/07/15 08:06:17;;;;;;;7.65;5.57;;;10.80;99.90;;;;;;4978533;28;20085;-63
2022/07/15 08:08:45;;;;;;;8.02;5.13;;;10.70;99.90;;;;;;4979336;28;20297;-63
2022/07/15 08:11:13;;;;;;;9.63;7.38;;;10.60;99.90;;;;;;4979837;28;20461;-64
2022/07/15 08:13:40;;;;;;;8.73;6.72;;;10.50;99.90;;;;;;4978091;28;20037;-67
2022/07/15 08:16:08;;;;;;;10.93;6.07;;;10.50;99.90;;;;;;4981050;28;20034;-65
2022/07/15 08:18:35;;;;;;;5.80;3.55;;;10.50;99.90;;;;;;4978780;28;20114;-64
2022/07/15 08:21:03;;;;;;;6.47;4.40;;;10.40;99.90;;;;;;4979675;28;20034;-66
2022/07/15 08:23:32;;;;;;;7.45;4.05;;;10.50;99.90;;;;;;4978821;28;20057;-64
2022/07/15 08:26:00;;;;;;;5.55;3.50;;;10.40;99.90;;;;;;4981316;28;20024;-67
2022/07/15 08:28:27;;;;;;;6.53;5.10;;;10.40;99.90;;;;;;4977604;28;20026;-66
2022/07/15 08:30:54;;;;;;;6.15;4.90;;;10.30;99.90;;;;;;4977951;28;20256;-63
2022/07/15 08:33:22;;;;;;;6.07;4.38;;;10.20;99.90;;;;;;4976751;28;20107;-66
2022/07/15 08:35:49;;;;;;;6.18;4.40;;;10.10;99.90;;;;;;4979671;28;20125;-65
2022/07/15 08:38:16;;;;;;;16.38;11.25;;;10.00;99.90;;;;;;4977600;28;20030;-63
2022/07/15 08:40:43;;;;;;;9.63;4.30;;;9.90;99.90;;;;;;4976988;28;20227;-63
2022/07/15 08:43:11;;;;;;;5.88;4.40;;;9.80;99.90;;;;;;4977254;28;20555;-63
2022/07/15 08:45:43;;;;;;;7.30;4.57;;;9.70;99.90;;;;;;4977626;28;20026;-62
2022/07/15 08:48:12;;;;;;;7.70;5.28;;;9.70;99.90;;;;;;4977227;28;20022;-64
2022/07/15 08:50:41;;;;;;;13.63;7.32;;;9.60;99.90;;;;;;4979132;28;20046;-63
2022/07/15 08:53:08;;;;;;;9.73;6.05;;;9.50;99.90;;;;;;4977061;28;20038;-63
2022/07/15 08:55:35;;;;;;;6.15;4.22;;;9.50;99.90;;;;;;4977756;28;20030;-64
2022/07/15 08:58:03;;;;;;;6.60;4.30;;;9.60;99.90;;;;;;4978054;28;20037;-64
2022/07/15 09:00:30;;;;;;;8.40;4.32;;;9.50;99.90;;;;;;4976036;28;20468;-64
2022/07/15 09:03:04;;;;;;;10.38;3.88;;;9.50;99.90;;;;;;4978927;28;20034;-63
2022/07/15 09:05:33;;;;;;;10.73;6.38;;;9.30;99.90;;;;;;4975358;28;20117;-63
2022/07/15 09:08:14;;;;;;;14.73;11.00;;;9.40;99.90;;;;;;4976217;28;20045;-64
2022/07/15 09:10:51;;;;;;;8.63;5.63;;;9.50;99.90;;;;;;4975707;28;20030;-62
2022/07/15 09:13:39;;;;;;;7.65;4.20;;;9.50;99.90;;;;;;4977572;28;20525;-63
2022/07/15 09:16:13;;;;;;;10.52;4.35;;;9.60;99.90;;;;;;4979037;28;20026;-63
2022/07/15 09:18:44;;;;;;;10.57;6.95;;;9.60;99.90;;;;;;4973896;28;20117;-63
2022/07/15 09:21:16;;;;;;;9.30;6.95;;;9.60;99.90;;;;;;4973411;28;20030;-64
2022/07/15 09:23:43;;;;;;;9.85;7.43;;;9.60;99.90;;;;;;4971984;28;20037;-62
2022/07/15 09:26:30;;;;;;;9.57;6.60;;;9.40;99.90;;;;;;4974255;28;20117;-63
2022/07/15 09:28:58;;;;;;;7.90;5.95;;;9.30;99.90;;;;;;4972227;28;20049;-63
2022/07/15 09:34:18;;;;;;;6.32;4.28;;;9.10;99.90;;;;;;4972848;28;20117;-64
2022/07/15 09:36:57;;;;;;;6.90;4.18;;;9.00;99.90;;;;;;4974789;28;20019;-63
2022/07/15 09:39:25;;;;;;;6.72;4.72;;;9.00;99.90;;;;;;4973990;28;20129;-63
2022/07/15 09:41:53;;;;;;;6.85;3.92;;;8.90;99.90;;;;;;4974986;28;20030;-62
2022/07/15 09:44:22;;;;;;;7.40;3.70;;;8.90;99.90;;;;;;4974143;28;20018;-63
2022/07/15 09:46:54;;;;;;;5.63;3.88;;;8.80;99.90;;;;;;4975695;28;20041;-63
2022/07/15 09:49:24;;;;;;;7.25;4.07;;;8.70;99.90;;;;;;4974734;28;20077;-64
2022/07/15 09:51:56;;;;;;;7.28;3.88;;;8.60;99.90;;;;;;4975643;28;20578;-63
2022/07/15 09:54:24;;;;;;;8.40;4.50;;;8.50;99.90;;;;;;4973011;28;20092;-64
2022/07/15 09:56:52;;;;;;;7.05;4.60;;;8.40;99.90;;;;;;4974748;28;20125;-64
2022/07/15 09:59:20;;;;;;;7.05;5.00;;;8.30;99.90;;;;;;4976378;28;20030;-63
2022/07/15 10:01:47;;;;;;;7.90;4.90;;;8.20;99.90;;;;;;4975226;28;20428;-65
2022/07/15 10:04:20;;;;;;;11.63;5.40;;;8.10;99.90;;;;;;4972815;28;20275;-63
2022/07/15 10:06:48;;;;;;;;;;;8.00;99.90;;;;;;4975047;28;20027;-64
2022/07/15 10:09:15;;;;;;;7.53;5.45;;;7.90;99.90;;;;;;4972776;28;20341;-65
2022/07/15 10:11:49;;;;;;;9.57;6.15;;;8.00;99.90;;;;;;4975824;28;20085;-64
2022/07/15 10:14:46;;;;;;;7.72;5.63;;;8.00;99.90;;;;;;4978402;28;20030;-62
2022/07/15 10:17:21;;;;;;;11.63;7.40;;;8.00;99.90;;;;;;4974565;28;20075;-63
2022/07/15 10:20:07;;;;;;;9.90;6.22;;;8.00;99.90;;;;;;4975313;28;20557;-65
2022/07/15 10:22:40;;;;;;;9.00;6.05;;;8.00;99.90;;;;;;4973461;28;20026;-64
2022/07/15 10:26:03;;;;;;;9.15;5.88;;;7.90;99.90;;;;;;4974995;28;20019;-63
2022/07/15 10:28:48;;;;;;;9.30;6.00;;;7.80;99.90;;;;;;4893963;29;20400;-64
2022/07/15 10:31:25;;;;;;;9.23;5.85;;;7.70;99.90;;;;;;4893535;29;20060;-64
2022/07/15 10:34:19;;;;;;;8.88;6.57;;;7.70;99.90;;;;;;4894868;29;20130;-66
2022/07/15 10:36:54;;;;;;;13.20;6.40;;;7.70;99.90;;;;;;4897523;29;20625;-62
2022/07/15 10:39:24;;;;;;;9.60;5.60;;;7.60;99.90;;;;;;4899794;29;20044;-64
2022/07/15 10:42:02;;;;;;;8.07;5.85;;;7.50;99.90;;;;;;4898382;29;20044;-64
2022/07/15 10:44:34;;;;;;;12.68;6.18;;;7.40;99.90;;;;;;4897057;29;20790;-64
2022/07/15 10:47:14;;;;;;;7.97;4.78;;;7.30;99.90;;;;;;4897570;29;20558;-65
2022/07/15 10:49:43;;;;;;;13.60;6.38;;;7.30;99.90;;;;;;4897958;29;20088;-65
2022/07/15 10:52:16;;;;;;;13.02;5.80;;;7.30;99.90;;;;;;4900000;29;20071;-64
2022/07/15 10:54:47;;;;;;;16.35;7.60;;;7.60;99.90;;;;;;4899954;29;20401;-65
2022/07/15 10:57:17;;;;;;;15.20;8.57;;;7.70;99.90;;;;;;4898248;29;20412;-64
2022/07/15 10:59:53;;;;;;;15.80;6.57;;;7.70;99.90;;;;;;4965060;28;20093;-64
2022/07/15 11:02:22;;;;;;;12.25;6.75;;;7.60;99.90;;;;;;4981528;28;20508;-63
2022/07/15 11:04:51;;;;;;;15.40;6.68;;;7.70;99.90;;;;;;4979737;28;20023;-65
2022/07/15 11:07:19;;;;;;;13.25;6.65;;;7.70;99.90;;;;;;4978514;28;20081;-65
2022/07/15 11:09:55;;;;;;;9.88;5.65;;;7.60;99.90;;;;;;4980114;28;20022;-65
2022/07/15 11:12:31;;;;;;;13.13;6.53;;;7.40;99.90;;;;;;4980091;28;20026;-62
2022/07/15 11:15:01;;;;;;;20.65;13.13;;;7.30;99.90;;;;;;4979973;28;20402;-63
2022/07/15 11:17:33;;;;;;;10.35;4.75;;;7.20;99.90;;;;;;4980628;28;20023;-64
2022/07/15 11:20:08;;;;;;;8.80;4.68;;;7.20;99.90;;;;;;4979463;28;20381;-64
2022/07/15 11:22:38;;;;;;;7.80;4.40;;;7.20;99.90;;;;;;4970782;28;20389;-65
2022/07/15 11:25:07;;;;;;;8.10;3.60;;;7.20;99.90;;;;;;4980211;28;20678;-64
2022/07/15 11:27:34;;;;;;;6.78;3.60;;;7.20;99.90;;;;;;4976714;28;20458;-64
2022/07/15 11:30:05;;;;;;;7.47;4.32;;;7.30;99.90;;;;;;4975552;28;20477;-62
2022/07/15 11:32:34;;;;;;;7.88;3.95;;;7.40;99.90;;;;;;4978601;28;20041;-64
2022/07/15 11:35:02;;;;;;;7.40;4.22;;;7.50;99.90;;;;;;4980448;28;20125;-63
2022/07/15 11:37:36;;;;;;;7.53;4.63;;;7.60;99.90;;;;;;4979118;28;20033;-63
2022/07/15 11:45:50;;;;;;;7.10;3.53;;;7.60;99.90;;;;;;4980588;28;20127;-63
2022/07/15 11:48:18;;;;;;;9.55;4.10;;;7.50;99.90;;;;;;4980045;28;20026;-62
2022/07/15 11:50:57;;;;;;;5.90;4.32;;;7.30;99.90;;;;;;4979988;28;20037;-63
2022/07/15 11:53:25;;;;;;;6.93;4.10;;;7.30;99.90;;;;;;4978428;28;20121;-63
2022/07/15 11:55:57;;;;;;;5.90;3.42;;;7.20;99.90;;;;;;4980117;28;20746;-62
2022/07/15 11:58:58;;;;;;;6.35;3.35;;;7.10;99.90;;;;;;4979154;28;20042;-62
2022/07/15 12:01:28;;;;;;;5.22;3.28;;;7.10;99.90;;;;;;4980091;28;20046;-63
2022/07/15 12:03:58;;;;;;;6.78;3.85;;;7.10;99.90;;;;;;4979687;28;20383;-64
2022/07/15 12:06:30;;;;;;;7.03;3.15;;;7.20;99.90;;;;;;4978913;28;20506;-63
2022/07/15 12:09:03;;;;;;;6.88;3.35;;;7.10;99.90;;;;;;4977414;28;20117;-64
2022/07/15 12:11:36;;;;;;;6.22;3.47;;;7.00;99.90;;;;;;4978916;28;20028;-63
2022/07/15 12:14:13;;;;;;;8.32;3.45;;;7.10;99.90;;;;;;4979216;28;20299;-63
2022/07/15 12:16:42;;;;;;;5.82;3.30;;;7.10;99.90;;;;;;4979693;28;20030;-63
2022/07/15 12:19:13;;;;;;;8.57;3.83;;;7.20;99.90;;;;;;4978519;28;20158;-64
2022/07/15 12:21:41;;;;;;;6.07;3.70;;;7.20;99.90;;;;;;4977879;28;20026;-63
2022/07/15 12:24:11;;;;;;;7.57;3.35;;;7.20;99.90;;;;;;4978087;28;20374;-63
2022/07/15 12:26:41;;;;;;;6.40;3.38;;;7.00;99.90;;;;;;4980206;28;20486;-64
2022/07/15 12:29:12;;;;;;;6.03;3.30;;;6.90;99.90;;;;;;4978033;28;20394;-62
2022/07/15 12:31:41;;;;;;;6.60;3.60;;;6.80;99.90;;;;;;4631738;28;9999965;-63
2022/07/15 12:34:08;;;;;;;4.90;3.15;;;6.70;99.90;;;;;;4976496;28;20030;-63
2022/07/15 12:36:38;;;;;;;5.82;3.80;;;6.70;99.90;;;;;;4976092;28;20544;-62
2022/07/15 12:39:07;;;;;;;6.15;3.67;;;6.60;99.90;;;;;;4976338;28;20023;-63
2022/07/15 12:41:35;;;;;;;7.78;3.85;;;6.50;99.90;;;;;;4974385;28;20030;-62
2022/07/15 12:44:04;;;;;;;7.50;3.60;;;6.40;99.90;;;;;;4975803;28;20038;-63
2022/07/15 12:46:52;;;;;;;6.18;4.30;;;6.30;99.90;;;;;;4976392;28;20105;-64
2022/07/15 12:49:41;;;;;;;7.07;4.32;;;6.40;99.90;;;;;;4977819;28;20026;-63
2022/07/15 12:52:20;;;;;;;6.25;4.65;;;6.30;99.90;;;;;;4978184;28;20026;-63
2022/07/15 12:54:49;;;;;;;7.03;5.00;;;6.20;99.90;;;;;;4978242;28;20085;-63
2022/07/15 12:57:24;;;;;;;7.93;5.63;;;6.20;99.90;;;;;;4978807;28;20030;-63
2022/07/15 13:00:13;;;;;;;9.60;6.30;;;6.10;99.90;;;;;;4979168;28;20294;-63
2022/07/15 13:03:06;;;;;;;7.32;5.60;;;6.00;99.90;;;;;;4979250;28;20042;-64
2022/07/15 13:05:40;;;;;;;9.38;7.20;;;6.10;99.90;;;;;;4979749;28;20792;-63
2022/07/15 13:08:10;;;;;;;10.40;5.65;;;6.00;99.90;;;;;;4978012;28;20049;-64
2022/07/15 13:10:37;;;;;;;9.70;6.20;;;5.80;99.90;;;;;;4981416;28;20778;-63